createdAt,value
2017-08-21T00:01:31.656Z,15.20
2017-08-21T00:03:59.216Z,15.10
2017-08-21T00:06:26.755Z,14.90
2017-08-21T00:08:54.294Z,15.10
2017-08-21T00:11:21.813Z,15.10
2017-08-21T00:13:49.358Z,15.10
2017-08-21T00:16:16.890Z,15.00
2017-08-21T00:18:44.432Z,14.90
2017-08-21T00:21:11.963Z,15.10
2017-08-21T00:23:39.503Z,15.20
2017-08-21T00:26:07.037Z,15.10
2017-08-21T00:28:34.580Z,15.20
2017-08-21T00:31:02.108Z,15.30
2017-08-21T00:33:29.650Z,15.00
2017-08-21T00:35:57.233Z,15.00
2017-08-21T00:38:24.771Z,15.10
2017-08-21T00:40:52.298Z,15.10
2017-08-21T00:43:19.856Z,15.10
2017-08-21T00:45:47.387Z,15.10
2017-08-21T00:48:14.939Z,14.90
2017-08-21T00:50:42.477Z,15.00
2017-08-21T00:53:10.018Z,15.00
2017-08-21T00:55:37.572Z,14.70
2017-08-21T00:58:05.114Z,14.70
2017-08-21T01:00:32.676Z,14.80
2017-08-21T01:03:00.208Z,14.80
2017-08-21T01:05:27.758Z,14.90
2017-08-21T01:07:55.292Z,14.60
2017-08-21T01:10:22.839Z,14.60
2017-08-21T01:12:50.362Z,14.50
2017-08-21T01:15:17.894Z,14.50
2017-08-21T01:17:45.422Z,14.60
2017-08-21T01:20:12.972Z,14.40
2017-08-21T01:22:40.491Z,14.60
2017-08-21T01:25:08.030Z,14.60
2017-08-21T01:27:35.581Z,14.70
2017-08-21T01:30:03.125Z,14.50
2017-08-21T01:32:30.645Z,14.30
2017-08-21T01:34:58.182Z,14.40
2017-08-21T01:37:25.707Z,14.40
2017-08-21T01:39:53.230Z,14.40
2017-08-21T01:42:21.534Z,14.40
2017-08-21T01:44:49.050Z,14.40
2017-08-21T01:47:16.663Z,14.30
2017-08-21T01:49:44.200Z,14.20
2017-08-21T01:52:12.503Z,14.50
2017-08-21T01:54:40.040Z,14.50
2017-08-21T01:57:07.596Z,14.40
2017-08-21T01:59:35.126Z,14.20
2017-08-21T02:02:02.675Z,14.40
2017-08-21T02:04:30.202Z,14.40
2017-08-21T02:06:57.743Z,14.40
2017-08-21T02:09:25.286Z,14.30
2017-08-21T02:11:53.591Z,14.20
2017-08-21T02:14:21.111Z,14.10
2017-08-21T02:16:48.664Z,14.30
2017-08-21T02:19:16.195Z,14.10
2017-08-21T02:21:43.732Z,14.20
2017-08-21T02:24:11.267Z,14.20
2017-08-21T02:26:39.554Z,14.30
2017-08-21T02:29:07.107Z,14.30
2017-08-21T02:31:34.632Z,14.30
2017-08-21T02:34:02.180Z,14.20
2017-08-21T02:36:29.707Z,14.10
2017-08-21T02:38:57.268Z,14.10
2017-08-21T02:41:24.811Z,14.20
2017-08-21T02:43:52.354Z,14.20
2017-08-21T02:46:19.878Z,14.00
2017-08-21T02:48:47.423Z,14.30
2017-08-21T02:51:14.952Z,14.10
2017-08-21T02:53:42.508Z,14.20
2017-08-21T02:56:10.030Z,14.30
2017-08-21T02:58:37.567Z,14.30
2017-08-21T03:01:05.092Z,14.40
2017-08-21T03:03:32.642Z,14.30
2017-08-21T03:06:00.925Z,14.50
2017-08-21T03:08:29.980Z,14.50
2017-08-21T03:10:57.511Z,14.50
2017-08-21T03:13:25.058Z,14.40
2017-08-21T03:15:52.579Z,14.50
2017-08-21T03:18:20.131Z,14.50
2017-08-21T03:20:47.664Z,14.50
2017-08-21T03:23:15.225Z,14.60
2017-08-21T03:25:42.751Z,14.60
2017-08-21T03:28:10.270Z,14.40
2017-08-21T03:30:37.821Z,14.60
2017-08-21T03:33:05.365Z,14.40
2017-08-21T03:35:32.910Z,14.70
2017-08-21T03:38:00.439Z,14.60
2017-08-21T03:40:27.988Z,14.70
2017-08-21T03:42:55.511Z,14.70
2017-08-21T03:45:23.067Z,15.00
2017-08-21T03:47:50.605Z,14.90
2017-08-21T03:50:18.165Z,14.90
2017-08-21T03:52:45.695Z,14.70
2017-08-21T03:55:13.265Z,14.70
2017-08-21T03:57:40.799Z,14.90
2017-08-21T04:00:08.334Z,14.50
2017-08-21T04:02:35.859Z,14.40
2017-08-21T04:05:03.402Z,14.50
2017-08-21T04:07:30.926Z,14.70
2017-08-21T04:09:58.479Z,14.60
2017-08-21T04:12:26.016Z,14.50
2017-08-21T04:14:53.554Z,14.60
2017-08-21T04:17:21.083Z,14.70
2017-08-21T04:19:48.635Z,14.80
2017-08-21T04:22:16.172Z,14.70
2017-08-21T04:24:43.733Z,15.00
2017-08-21T04:27:11.258Z,14.70
2017-08-21T04:29:38.810Z,14.70
2017-08-21T04:32:07.495Z,14.90
2017-08-21T04:34:35.029Z,14.80
2017-08-21T04:37:02.581Z,14.90
2017-08-21T04:39:30.112Z,14.90
2017-08-21T04:41:57.675Z,14.60
2017-08-21T04:44:25.206Z,14.70
2017-08-21T04:46:52.762Z,14.80
2017-08-21T04:49:20.287Z,14.90
2017-08-21T04:51:47.826Z,14.90
2017-08-21T04:54:15.355Z,14.80
2017-08-21T04:56:42.899Z,14.90
2017-08-21T04:59:10.438Z,15.20
2017-08-21T05:01:38.010Z,14.90
2017-08-21T05:04:05.535Z,14.90
2017-08-21T05:06:33.079Z,14.80
2017-08-21T05:09:00.606Z,15.20
2017-08-21T05:11:28.157Z,15.20
2017-08-21T05:13:55.699Z,15.20
2017-08-21T05:16:23.218Z,15.00
2017-08-21T05:18:50.760Z,15.20
2017-08-21T05:21:18.292Z,15.10
2017-08-21T05:23:45.835Z,15.00
2017-08-21T05:26:13.368Z,15.10
2017-08-21T05:28:40.907Z,15.10
2017-08-21T05:31:08.442Z,15.70
2017-08-21T05:33:36.028Z,15.20
2017-08-21T05:36:03.565Z,15.00
2017-08-21T05:38:31.115Z,15.00
2017-08-21T05:40:58.638Z,15.10
2017-08-21T05:43:26.186Z,15.00
2017-08-21T05:45:53.719Z,15.00
2017-08-21T05:48:21.275Z,15.10
2017-08-21T05:50:48.804Z,15.20
2017-08-21T05:53:16.412Z,15.20
2017-08-21T05:55:43.949Z,15.10
2017-08-21T05:58:11.499Z,15.30
2017-08-21T06:00:39.027Z,15.20
2017-08-21T06:03:06.570Z,15.40
2017-08-21T06:05:35.019Z,15.20
2017-08-21T06:08:02.538Z,15.20
2017-08-21T06:10:30.096Z,15.00
2017-08-21T06:12:57.632Z,15.00
2017-08-21T06:15:25.171Z,15.10
2017-08-21T06:17:52.699Z,14.90
2017-08-21T06:20:20.269Z,14.90
2017-08-21T06:22:47.808Z,15.40
2017-08-21T06:25:15.365Z,15.80
2017-08-21T06:27:42.903Z,16.00
2017-08-21T06:30:10.461Z,16.00
2017-08-21T06:32:37.984Z,15.80
2017-08-21T06:35:05.531Z,15.80
2017-08-21T06:37:33.053Z,15.50
2017-08-21T06:40:01.360Z,15.60
2017-08-21T06:42:28.883Z,15.60
2017-08-21T06:44:56.435Z,15.90
2017-08-21T06:47:23.958Z,15.80
2017-08-21T06:49:51.504Z,16.20
2017-08-21T06:52:19.027Z,16.30
2017-08-21T06:54:46.584Z,16.10
2017-08-21T06:57:14.116Z,16.10
2017-08-21T06:59:41.643Z,16.50
2017-08-21T07:02:09.174Z,16.50
2017-08-21T07:04:37.482Z,17.10
2017-08-21T07:07:05.018Z,17.10
2017-08-21T07:09:32.547Z,16.80
2017-08-21T07:12:00.094Z,16.90
2017-08-21T07:14:27.623Z,17.20
2017-08-21T07:16:55.171Z,16.80
2017-08-21T07:19:22.697Z,17.00
2017-08-21T07:21:50.248Z,17.30
2017-08-21T07:24:17.776Z,17.60
2017-08-21T07:26:45.331Z,16.70
2017-08-21T07:29:12.855Z,16.90
2017-08-21T07:31:40.395Z,17.40
2017-08-21T07:34:07.923Z,17.00
2017-08-21T07:36:36.181Z,17.00
2017-08-21T07:39:03.706Z,16.70
2017-08-21T07:41:31.222Z,16.40
2017-08-21T07:43:58.767Z,16.10
2017-08-21T07:46:26.297Z,16.50
2017-08-21T07:48:53.842Z,16.30
2017-08-21T07:51:22.151Z,16.40
2017-08-21T07:53:49.703Z,16.40
2017-08-21T07:56:17.222Z,16.80
2017-08-21T07:58:44.769Z,17.90
2017-08-21T08:01:12.291Z,19.90
2017-08-21T08:03:39.840Z,19.60
2017-08-21T08:06:07.380Z,21.20
2017-08-21T08:08:35.692Z,21.70
2017-08-21T08:11:03.226Z,21.60
2017-08-21T08:13:30.771Z,20.40
2017-08-21T08:15:58.309Z,21.90
2017-08-21T08:18:25.875Z,20.90
2017-08-21T08:23:23.063Z,19.00
2017-08-21T08:25:51.383Z,19.70
2017-08-21T08:28:18.921Z,19.70
2017-08-21T08:35:45.007Z,17.90
2017-08-21T08:38:12.531Z,18.90
2017-08-21T08:40:40.857Z,22.80
2017-08-21T08:43:08.397Z,22.80
2017-08-21T08:45:36.032Z,21.90
2017-08-21T08:48:04.344Z,21.30
2017-08-21T08:55:29.673Z,21.50
2017-08-21T08:57:58.337Z,21.50
2017-08-21T09:00:25.899Z,19.90
2017-08-21T09:02:54.570Z,18.40
2017-08-21T09:05:22.087Z,18.80
2017-08-21T09:07:49.653Z,19.10
2017-08-21T09:10:17.182Z,18.60
2017-08-21T09:12:44.734Z,18.90
2017-08-21T09:15:12.266Z,18.90
2017-08-21T09:17:39.820Z,21.40
2017-08-21T09:20:07.376Z,20.60
2017-08-21T09:22:34.932Z,25.80
2017-08-21T09:25:02.500Z,22.10
2017-08-21T09:27:30.044Z,23.30
2017-08-21T09:29:58.703Z,19.90
2017-08-21T09:32:26.247Z,19.80
2017-08-21T09:34:53.774Z,20.30
2017-08-21T09:37:21.318Z,19.10
2017-08-21T09:39:48.852Z,19.40
2017-08-21T09:42:16.391Z,19.20
2017-08-21T09:44:43.934Z,18.90
2017-08-21T09:47:12.252Z,19.30
2017-08-21T09:49:39.787Z,19.30
2017-08-21T09:52:07.335Z,19.20
2017-08-21T09:54:35.647Z,19.60
2017-08-21T09:57:03.201Z,19.60
2017-08-21T09:59:30.755Z,19.70
2017-08-21T10:01:58.310Z,19.40
2017-08-21T10:04:26.980Z,18.60
2017-08-21T10:09:23.426Z,22.10
2017-08-21T10:11:50.974Z,23.60
2017-08-21T10:14:18.531Z,21.20
2017-08-21T10:16:46.065Z,20.20
2017-08-21T10:19:13.606Z,20.00
2017-08-21T10:21:41.153Z,19.50
2017-08-21T10:24:08.713Z,19.70
2017-08-21T10:26:36.390Z,20.00
2017-08-21T10:29:03.953Z,21.00
2017-08-21T10:31:31.488Z,28.00
2017-08-21T10:33:59.040Z,28.90
2017-08-21T10:36:26.575Z,25.00
2017-08-21T10:38:54.131Z,24.90
2017-08-21T10:41:21.660Z,21.70
2017-08-21T10:43:49.222Z,21.10
2017-08-21T10:46:16.748Z,20.70
2017-08-21T10:48:44.301Z,20.70
2017-08-21T10:51:11.847Z,23.40
2017-08-21T10:53:39.390Z,20.50
2017-08-21T10:56:06.922Z,20.60
2017-08-21T10:58:34.486Z,20.00
2017-08-21T11:01:02.024Z,19.90
2017-08-21T11:03:29.575Z,19.60
2017-08-21T11:05:57.105Z,19.60
2017-08-21T11:08:24.657Z,19.30
2017-08-21T11:10:52.199Z,19.00
2017-08-21T11:13:19.780Z,19.50
2017-08-21T11:15:47.313Z,19.60
2017-08-21T11:18:14.848Z,19.50
2017-08-21T11:20:42.399Z,19.40
2017-08-21T11:23:09.922Z,24.50
2017-08-21T11:25:38.246Z,21.40
2017-08-21T11:33:05.050Z,24.80
2017-08-21T11:35:33.730Z,26.30
2017-08-21T11:38:01.271Z,26.30
2017-08-21T11:40:28.829Z,26.10
2017-08-21T11:42:56.365Z,27.70
2017-08-21T11:45:23.920Z,26.40
2017-08-21T11:47:52.210Z,24.90
2017-08-21T11:50:19.771Z,24.90
2017-08-21T11:52:47.318Z,23.50
2017-08-21T11:55:14.860Z,21.80
2017-08-21T11:57:42.386Z,20.90
2017-08-21T12:00:11.085Z,23.90
2017-08-21T12:02:38.610Z,23.80
2017-08-21T12:05:06.163Z,24.10
2017-08-21T12:10:02.605Z,22.70
2017-08-21T12:12:31.647Z,23.70
2017-08-21T12:17:29.208Z,22.70
2017-08-21T12:19:56.764Z,22.60
2017-08-21T12:34:49.868Z,21.90
2017-08-21T12:37:17.400Z,21.90
2017-08-21T12:39:44.966Z,22.80
2017-08-21T12:42:12.503Z,22.30
2017-08-21T12:44:40.037Z,21.30
2017-08-21T12:47:07.582Z,20.70
2017-08-21T12:49:35.115Z,20.90
2017-08-21T12:52:02.661Z,20.80
2017-08-21T12:54:30.196Z,21.00
2017-08-21T12:56:57.730Z,21.00
2017-08-21T12:59:25.277Z,21.20
2017-08-21T13:01:52.831Z,22.10
2017-08-21T13:04:20.355Z,23.80
2017-08-21T13:06:49.043Z,21.60
2017-08-21T13:09:45.555Z,21.50
2017-08-21T13:12:13.113Z,22.70
2017-08-21T13:14:40.653Z,22.40
2017-08-21T13:17:08.202Z,23.40
2017-08-21T13:19:35.809Z,23.80
2017-08-21T13:22:03.359Z,23.40
2017-08-21T13:24:32.027Z,21.00
2017-08-21T13:26:59.585Z,21.00
2017-08-21T13:29:27.120Z,20.90
2017-08-21T13:31:54.664Z,22.30
2017-08-21T13:34:22.195Z,23.30
2017-08-21T13:36:49.768Z,22.00
2017-08-21T13:39:17.290Z,21.20
2017-08-21T13:41:44.818Z,20.90
2017-08-21T13:44:12.359Z,21.10
2017-08-21T13:46:39.904Z,21.00
2017-08-21T13:49:07.444Z,21.00
2017-08-21T13:51:34.967Z,20.90
2017-08-21T13:54:02.525Z,21.60
2017-08-21T13:56:30.058Z,22.10
2017-08-21T13:58:57.629Z,22.00
2017-08-21T14:01:25.151Z,21.10
2017-08-21T14:03:52.708Z,21.20
2017-08-21T14:06:20.243Z,21.10
2017-08-21T14:08:47.793Z,21.20
2017-08-21T14:11:15.329Z,21.00
2017-08-21T14:13:42.883Z,20.30
2017-08-21T14:16:10.402Z,20.00
2017-08-21T14:18:37.955Z,19.90
2017-08-21T14:21:05.484Z,18.70
2017-08-21T14:23:33.059Z,18.50
2017-08-21T14:26:00.578Z,18.60
2017-08-21T14:28:28.098Z,18.90
2017-08-21T14:30:55.652Z,18.80
2017-08-21T14:33:23.189Z,19.10
2017-08-21T14:35:50.747Z,18.80
2017-08-21T14:38:18.267Z,18.90
2017-08-21T14:40:45.807Z,18.90
2017-08-21T14:43:13.335Z,19.00
2017-08-21T14:45:40.893Z,18.60
2017-08-21T14:48:08.418Z,18.70
2017-08-21T14:50:35.969Z,19.00
2017-08-21T14:53:03.500Z,19.20
2017-08-21T14:55:31.063Z,19.40
2017-08-21T14:57:58.585Z,19.50
2017-08-21T15:00:26.136Z,20.10
2017-08-21T15:02:53.685Z,20.00
2017-08-21T15:05:21.235Z,20.00
2017-08-21T15:07:48.780Z,20.70
2017-08-21T15:10:16.327Z,21.00
2017-08-21T15:12:43.855Z,20.40
2017-08-21T15:15:12.181Z,20.80
2017-08-21T15:17:39.723Z,20.80
2017-08-21T15:20:07.289Z,20.90
2017-08-21T15:22:34.828Z,21.40
2017-08-21T15:25:02.357Z,21.00
2017-08-21T15:27:29.904Z,21.00
2017-08-21T15:29:57.447Z,21.00
2017-08-21T15:32:26.520Z,20.30
2017-08-21T15:34:54.055Z,20.30
2017-08-21T15:37:21.620Z,20.80
2017-08-21T15:39:49.147Z,20.60
2017-08-21T15:42:16.686Z,20.20
2017-08-21T15:44:44.221Z,20.30
2017-08-21T15:47:11.771Z,20.30
2017-08-21T15:49:39.297Z,20.00
2017-08-21T15:52:06.910Z,20.00
2017-08-21T15:54:34.443Z,19.80
2017-08-21T15:59:32.383Z,19.80
2017-08-21T16:01:59.936Z,20.00
2017-08-21T16:04:27.473Z,20.00
2017-08-21T16:06:55.025Z,19.80
2017-08-21T16:09:22.550Z,20.00
2017-08-21T16:11:50.127Z,19.80
2017-08-21T16:14:17.649Z,19.80
2017-08-21T16:16:45.175Z,19.70
2017-08-21T16:31:37.579Z,19.40
2017-08-21T16:34:05.118Z,19.70
2017-08-21T16:36:32.653Z,19.80
2017-08-21T16:39:00.191Z,20.00
2017-08-21T16:41:27.728Z,19.70
2017-08-21T16:43:55.284Z,19.80
2017-08-21T16:46:22.809Z,19.40
2017-08-21T16:48:50.346Z,19.30
2017-08-21T16:51:17.876Z,19.10
2017-08-21T16:53:45.417Z,19.40
2017-08-21T16:56:12.947Z,19.50
2017-08-21T16:58:40.487Z,19.30
2017-08-21T17:01:08.024Z,19.40
2017-08-21T17:03:35.579Z,19.40
2017-08-21T17:06:03.102Z,19.40
2017-08-21T17:08:30.657Z,19.30
2017-08-21T17:10:58.233Z,19.30
